Aviation Digital Data Service (ADDS)

Output produced by METARs form (1428 UTC 19 April 2019)
found at http://www.aviationweather.gov/metar/data/
 
Forecast for: WIPP (PALEMBANG/SULTAN, ID)
Text: TAF WIPP 191100Z 1912/2012 VRB07KT 9999 SCT010
Forecast period: 1200 UTC 19 April 2019 to 1200 UTC 20 April 2019
Forecast type: FROM: standard forecast or significant change
Winds: variable direction winds at 8 MPH (7 knots; 3.6 m/s)
Visibility: 6 or more miles 10+ km)
Ceiling: at least 12,000 feet AGL
Clouds: scattered clouds at 1000 feet AGL
Weather: no significant weather forecast for this period
Text: TEMPO 1914/1918 3000 TSRA BKN010 FEW012CB
Forecast period: 1400 to 1800 UTC 19 April 2019
Forecast type: TEMPORARY: The following changes expected for less than half the time period
Visibility: 1.86 miles (2.99 km)
Ceiling: 1000 feet AGL
Clouds: broken clouds at 1000 feet AGL
few clouds at 1200 feet AGL
Weather: TSRA  (rain associated with thunderstorm(s))
Text: TEMPO 1921/2001 5000 BR
Forecast period: 2100 UTC 19 April 2019 to 0100 UTC 20 April 2019
Forecast type: TEMPORARY: The following changes expected for less than half the time period
Visibility: 3 miles (5 km)
Ceiling: unknown
Clouds: missing
Weather: BR  (mist)